Time;durP1;ratioP1;P1;durP2;ratioP2;P2;SDS_P1;SDS_P2;PMS_P1;PMS_P2;Temp;Humidity;BMP_temperature;BMP_pressure;BME280_temperature;BME280_humidity;BME280_pressure;Samples;Min_cycle;Max_cycle;Signal;HPM_P1;HPM_P2
2023/10/04 00:01:16;;;;;;;8.60;5.43;;;;;;;21.65;56.00;102499.56;5010783;28;20038;-37
2023/10/04 00:03:43;;;;;;;8.43;5.20;;;;;;;21.64;55.91;102498.72;5005387;28;20130;-37
2023/10/04 00:06:10;;;;;;;8.75;5.25;;;;;;;21.63;55.94;102499.72;5002561;28;20450;-37
2023/10/04 00:08:37;;;;;;;9.02;5.60;;;;;;;21.64;56.05;102501.41;5003811;28;20147;-37
2023/10/04 00:11:04;;;;;;;8.45;5.25;;;;;;;21.62;55.86;102494.44;5004257;28;20054;-37
2023/10/04 00:13:33;;;;;;;8.30;5.43;;;;;;;21.63;56.02;102510.50;5000497;28;20042;-37
2023/10/04 00:16:01;;;;;;;8.30;5.13;;;;;;;21.61;56.00;102507.06;5004870;28;20052;-37
2023/10/04 00:18:27;;;;;;;7.25;4.90;;;;;;;21.61;55.78;102511.63;5005594;28;20133;-37
2023/10/04 00:20:55;;;;;;;10.48;5.28;;;;;;;21.61;56.12;102508.91;5004296;28;20154;-37
2023/10/04 00:23:22;;;;;;;9.25;5.80;;;;;;;21.59;55.99;102511.78;5005227;28;20041;-37
2023/10/04 00:25:48;;;;;;;8.38;5.10;;;;;;;21.60;55.94;102518.88;5001492;28;20350;-37
2023/10/04 00:28:15;;;;;;;7.32;4.97;;;;;;;21.58;56.07;102512.72;5004408;28;20081;-37
2023/10/04 00:30:43;;;;;;;9.23;5.43;;;;;;;21.59;56.33;102522.56;5007232;28;20046;-37
2023/10/04 00:33:09;;;;;;;8.10;5.05;;;;;;;21.59;56.11;102527.09;5001422;28;20046;-37
2023/10/04 00:35:40;;;;;;;8.65;5.15;;;;;;;21.58;56.07;102523.53;5010996;28;20389;-37
2023/10/04 00:38:09;;;;;;;7.75;4.78;;;;;;;21.58;55.83;102526.22;5003198;28;20045;-37
2023/10/04 00:40:38;;;;;;;7.63;5.07;;;;;;;21.57;56.48;102524.53;5002930;28;20082;-37
2023/10/04 00:43:14;;;;;;;7.80;5.10;;;;;;;21.57;56.16;102519.13;4998933;28;20142;-36
2023/10/04 00:45:48;;;;;;;7.32;4.72;;;;;;;21.55;56.21;102529.22;5003108;28;20054;-37
2023/10/04 00:48:23;;;;;;;7.25;4.68;;;;;;;21.56;56.02;102533.63;5007523;28;20050;-37
2023/10/04 00:50:51;;;;;;;8.30;4.75;;;;;;;21.56;56.05;102532.78;5003261;28;20502;-37
2023/10/04 00:53:25;;;;;;;8.10;4.97;;;;;;;;;;5006609;28;20037;-37
2023/10/04 00:55:53;;;;;;;;;;;;;;;;;;5004593;28;20057;-37
2023/10/04 00:58:21;;;;;;;9.63;4.82;;;;;;;21.57;56.12;102531.78;5004442;28;19987;-37
2023/10/04 01:00:48;;;;;;;6.53;4.15;;;;;;;21.55;56.00;102531.91;5002125;28;20320;-37
2023/10/04 01:03:15;;;;;;;7.30;4.45;;;;;;;21.54;56.20;102535.59;5002568;28;20089;-37
2023/10/04 01:05:51;;;;;;;6.50;4.60;;;;;;;21.54;56.23;102534.72;5005954;28;20439;-37
2023/10/04 01:08:22;;;;;;;6.60;3.90;;;;;;;21.53;56.29;102541.97;5004919;28;20080;-37
2023/10/04 01:10:51;;;;;;;7.03;4.40;;;;;;;21.53;56.18;102539.28;4999543;28;20430;-37
2023/10/04 01:13:21;;;;;;;7.05;4.43;;;;;;;21.52;56.04;102537.56;5001605;28;20422;-37
2023/10/04 01:15:55;;;;;;;7.30;4.20;;;;;;;21.52;56.38;102542.13;5001157;28;20050;-37
2023/10/04 01:18:23;;;;;;;7.55;4.65;;;;;;;21.51;56.11;102546.66;5003716;28;20046;-37
2023/10/04 01:20:51;;;;;;;7.57;4.60;;;;;;;21.51;56.10;102548.50;5005978;28;20108;-37
2023/10/04 01:23:18;;;;;;;5.90;3.60;;;;;;;21.51;56.13;102559.28;5001713;28;20328;-37
2023/10/04 01:25:46;;;;;;;6.65;4.22;;;;;;;21.50;56.26;102554.88;5002540;28;20619;-37
2023/10/04 01:28:26;;;;;;;6.05;4.15;;;;;;;21.50;56.05;102553.03;5001940;28;20060;-37
2023/10/04 01:30:56;;;;;;;6.05;3.90;;;;;;;21.49;56.14;102548.63;5006926;28;20209;-37
2023/10/04 01:33:23;;;;;;;6.80;4.15;;;;;;;21.49;55.91;102548.63;5000814;28;20139;-37
2023/10/04 01:35:53;;;;;;;7.18;4.25;;;;;;;21.49;56.49;102553.19;5002741;28;20045;-36
2023/10/04 01:38:25;;;;;;;5.35;3.65;;;;;;;21.49;56.13;102547.78;5006590;28;20046;-37
2023/10/04 01:40:53;;;;;;;7.07;4.50;;;;;;;21.48;56.05;102549.63;5000854;28;20053;-37
2023/10/04 01:43:24;;;;;;;6.97;4.30;;;;;;;21.49;56.42;102550.47;5005610;28;20109;-37
2023/10/04 01:45:57;;;;;;;6.70;4.00;;;;;;;21.47;55.94;102541.66;5002960;28;20058;-37
2023/10/04 01:48:34;;;;;;;6.68;4.45;;;;;;;21.47;56.18;102550.63;5002884;28;20275;-37
2023/10/04 01:51:06;;;;;;;5.30;3.47;;;;;;;21.47;56.19;102541.66;5001875;28;20433;-36
2023/10/04 01:53:34;;;;;;;5.55;3.60;;;;;;;21.47;55.83;102545.22;5000954;28;20038;-37
2023/10/04 01:56:06;;;;;;;6.38;3.55;;;;;;;21.46;56.27;102554.28;5002884;28;20112;-37
2023/10/04 01:58:33;;;;;;;7.03;3.78;;;;;;;21.46;56.37;102542.66;5003391;28;20077;-36
2023/10/04 02:01:00;;;;;;;6.28;3.70;;;;;;;21.46;56.36;102539.94;5004841;28;20477;-37
2023/10/04 02:03:27;;;;;;;5.05;3.15;;;;;;;21.45;56.22;102539.09;5003505;28;20081;-37
2023/10/04 02:05:56;;;;;;;5.70;3.58;;;;;;;21.45;55.84;102544.50;5003971;28;20136;-36
2023/10/04 02:08:24;;;;;;;6.60;4.07;;;;;;;21.46;56.09;102545.34;5003624;28;20187;-37
2023/10/04 02:10:52;;;;;;;5.00;3.40;;;;;;;21.44;56.09;102540.09;5006453;28;20054;-37
2023/10/04 02:13:19;;;;;;;4.72;3.20;;;;;;;21.44;56.33;102542.78;5002592;28;20076;-36
2023/10/04 02:15:50;;;;;;;4.90;3.38;;;;;;;21.44;56.30;102545.50;5003152;28;20128;-36
2023/10/04 02:18:19;;;;;;;6.18;4.07;;;;;;;21.43;56.02;102544.66;5000994;28;20351;-36
2023/10/04 02:20:48;;;;;;;6.65;4.18;;;;;;;21.44;56.11;102545.50;5001046;28;20054;-36
2023/10/04 02:23:16;;;;;;;4.90;3.38;;;;;;;21.42;56.29;102548.31;5001476;28;20061;-37
2023/10/04 02:25:43;;;;;;;4.97;3.22;;;;;;;21.41;55.91;102546.59;5001166;28;20050;-36
2023/10/04 02:28:11;;;;;;;6.25;3.58;;;;;;;21.42;55.95;102550.16;4999563;28;20088;-37
2023/10/04 02:30:38;;;;;;;5.55;3.53;;;;;;;21.41;56.27;102548.47;5005054;28;20488;-37
2023/10/04 02:33:13;;;;;;;5.13;3.35;;;;;;;21.41;55.88;102552.00;5004449;28;20453;-37
2023/10/04 02:35:44;;;;;;;5.70;3.58;;;;;;;21.40;56.28;102561.09;5006611;28;20074;-37
2023/10/04 02:38:26;;;;;;;4.82;3.28;;;;;;;21.41;56.17;102564.63;5002032;28;20053;-36
2023/10/04 02:40:54;;;;;;;5.75;3.35;;;;;;;21.41;56.00;102559.25;5005541;28;20057;-37
2023/10/04 02:43:23;;;;;;;5.53;3.40;;;;;;;21.40;56.21;102562.94;4998774;28;20092;-37
2023/10/04 02:45:52;;;;;;;5.20;3.05;;;;;;;21.40;56.13;102565.63;5000768;28;20054;-37
2023/10/04 02:48:20;;;;;;;6.20;3.58;;;;;;;21.40;55.96;102562.94;5002299;28;20053;-36
2023/10/04 02:50:47;;;;;;;5.97;3.38;;;;;;;21.39;55.96;102570.19;5002758;28;20158;-36
2023/10/04 02:53:16;;;;;;;6.18;3.53;;;;;;;21.39;55.92;102570.19;5000639;28;20054;-36
2023/10/04 02:55:45;;;;;;;6.55;3.88;;;;;;;21.37;55.97;102566.75;5000919;28;20042;-37
2023/10/04 02:58:13;;;;;;;6.07;3.00;;;;;;;21.39;56.02;102575.56;5001254;28;20133;-37
2023/10/04 03:00:49;;;;;;;6.03;3.33;;;;;;;21.37;56.20;102572.13;5004585;28;20330;-37
2023/10/04 03:03:22;;;;;;;3.65;2.63;;;;;;;21.37;55.88;102577.53;4999481;28;20058;-37
2023/10/04 03:05:51;;;;;;;3.90;2.72;;;;;;;21.36;56.13;102578.53;5005024;28;20041;-37
2023/10/04 03:08:18;;;;;;;5.95;2.97;;;;;;;21.36;55.74;102575.84;4996471;28;20690;-37
2023/10/04 03:10:49;;;;;;;4.78;2.67;;;;;;;21.36;55.98;102575.84;5007483;28;20065;-37
2023/10/04 03:13:22;;;;;;;4.75;2.70;;;;;;;21.34;55.90;102572.41;5004328;28;20362;-37
2023/10/04 03:15:50;;;;;;;5.03;2.80;;;;;;;21.34;55.55;102577.78;5007961;28;20038;-37
2023/10/04 03:18:19;;;;;;;4.28;2.80;;;;;;;21.33;55.75;102576.09;5006779;28;20816;-37
2023/10/04 03:23:35;;;;;;;4.60;3.00;;;;;;;21.33;55.90;102575.25;5003677;28;20057;-36
2023/10/04 03:26:03;;;;;;;5.93;3.55;;;;;;;21.32;55.69;102574.41;5005042;28;20081;-36
2023/10/04 03:28:36;;;;;;;5.75;2.80;;;;;;;21.32;55.89;102590.56;5007259;28;20046;-36
2023/10/04 03:31:14;;;;;;;5.85;3.03;;;;;;;21.29;55.94;102577.31;5006126;28;20104;-36
2023/10/04 03:33:45;;;;;;;5.38;2.67;;;;;;;21.29;55.77;102577.31;5003014;28;20346;-36
2023/10/04 03:36:18;;;;;;;4.78;2.67;;;;;;;21.29;55.89;102579.16;5004788;28;20569;-36
2023/10/04 03:38:45;;;;;;;7.05;2.88;;;;;;;21.28;55.65;102572.91;5010339;28;20136;-36
2023/10/04 03:41:12;;;;;;;4.63;2.58;;;;;;;21.28;55.73;102566.66;5007815;28;20510;-36
2023/10/04 03:43:40;;;;;;;4.00;2.53;;;;;;;21.27;55.94;102570.38;5009756;28;20099;-36
2023/10/04 03:46:17;;;;;;;4.75;2.67;;;;;;;21.26;55.56;102576.72;5006179;28;20622;-36
2023/10/04 03:48:48;;;;;;;6.15;2.45;;;;;;;21.25;56.12;102573.19;5004287;28;20108;-36
2023/10/04 03:51:22;;;;;;;3.75;2.60;;;;;;;21.25;55.91;102580.41;5005847;28;20599;-36
2023/10/04 03:53:50;;;;;;;5.85;2.75;;;;;;;21.25;55.80;102577.72;5006215;28;20046;-36
2023/10/04 03:56:18;;;;;;;4.93;2.10;;;;;;;21.24;55.88;102576.88;5002764;28;20053;-36
2023/10/04 03:58:45;;;;;;;6.25;2.72;;;;;;;21.24;55.69;102581.41;5007777;28;20465;-36
2023/10/04 04:01:14;;;;;;;4.30;2.45;;;;;;;21.23;55.83;102580.56;5000860;28;20050;-36
2023/10/04 04:03:41;;;;;;;6.88;2.72;;;;;;;21.22;55.78;102581.53;5005323;28;20057;-36
2023/10/04 04:06:08;;;;;;;3.80;2.53;;;;;;;21.21;55.76;102574.44;5003543;28;20046;-36
2023/10/04 04:08:34;;;;;;;4.68;2.65;;;;;;;21.21;56.20;102560.94;5004956;28;20133;-36
2023/10/04 04:11:01;;;;;;;4.28;2.60;;;;;;;21.20;55.88;102560.09;5009004;28;20137;-36
2023/10/04 04:13:28;;;;;;;3.95;2.38;;;;;;;21.19;56.11;102560.25;5008053;28;20050;-36
2023/10/04 04:15:55;;;;;;;4.90;2.50;;;;;;;21.18;56.09;102555.81;5004022;28;20369;-36
2023/10/04 04:18:22;;;;;;;6.25;2.50;;;;;;;21.16;56.12;102555.94;4999669;28;20128;-36
2023/10/04 04:20:50;;;;;;;5.60;2.50;;;;;;;21.16;55.65;102553.25;5002878;28;20072;-36
2023/10/04 04:23:16;;;;;;;5.40;3.03;;;;;;;21.15;55.40;102550.72;5003081;28;20061;-36
2023/10/04 04:25:43;;;;;;;5.45;2.40;;;;;;;21.14;55.49;102555.22;5005292;28;20050;-36
2023/10/04 04:28:14;;;;;;;5.75;2.53;;;;;;;21.14;55.57;102541.72;5010285;28;20443;-36
2023/10/04 04:30:41;;;;;;;5.32;2.17;;;;;;;21.14;55.83;102544.44;5003262;28;20436;-36
2023/10/04 04:33:10;;;;;;;6.43;2.20;;;;;;;21.13;55.67;102541.88;4999082;28;20057;-36
2023/10/04 04:38:22;;;;;;;4.75;2.70;;;;;;;21.13;55.59;102552.66;5002447;28;20434;-36
2023/10/04 04:40:52;;;;;;;4.57;2.13;;;;;;;21.11;55.92;102560.91;5005993;28;20342;-36
2023/10/04 04:45:50;;;;;;;4.03;2.47;;;;;;;21.09;55.56;102572.78;5010733;28;20053;-36
2023/10/04 04:48:24;;;;;;;4.20;2.22;;;;;;;21.09;55.55;102594.38;5008117;28;20148;-36
2023/10/04 04:50:52;;;;;;;;;;;;;;;21.07;55.80;102593.66;5004135;28;20105;-36
2023/10/04 04:53:22;;;;;;;5.63;2.42;;;;;;;21.11;55.46;102595.09;5004866;28;19968;-36
2023/10/04 04:55:50;;;;;;;4.20;2.20;;;;;;;21.09;55.17;102600.59;5001830;28;20453;-36
2023/10/04 04:58:21;;;;;;;5.32;2.45;;;;;;;21.07;55.62;102596.34;5004882;28;20054;-36
2023/10/04 05:00:50;;;;;;;5.53;2.42;;;;;;;21.07;55.48;102604.44;4997938;28;20077;-36
2023/10/04 05:03:17;;;;;;;5.22;2.42;;;;;;;21.07;55.83;102594.50;5002894;28;20074;-36
2023/10/04 05:05:44;;;;;;;6.70;2.45;;;;;;;21.05;55.33;102591.06;5003191;28;20179;-36
2023/10/04 05:08:11;;;;;;;4.25;2.30;;;;;;;21.04;55.46;102589.38;5001980;28;20104;-36
2023/10/04 05:10:38;;;;;;;5.38;2.40;;;;;;;21.04;55.33;102591.22;5001004;28;20046;-36
2023/10/04 05:13:09;;;;;;;4.85;2.05;;;;;;;21.04;55.52;102583.13;5002690;28;20046;-36
2023/10/04 05:15:38;;;;;;;3.92;2.15;;;;;;;21.03;55.51;102592.22;5000468;28;20434;-36
2023/10/04 05:18:15;;;;;;;3.40;1.75;;;;;;;21.02;55.48;102604.81;5004861;28;20420;-36
2023/10/04 05:20:43;;;;;;;4.80;2.10;;;;;;;21.01;55.47;102608.50;5008136;28;20334;-36
2023/10/04 05:23:10;;;;;;;3.70;2.20;;;;;;;21.01;55.64;102613.03;5001094;28;20476;-36
2023/10/04 05:25:37;;;;;;;4.97;2.53;;;;;;;21.01;55.81;102621.13;5005089;28;20058;-36
2023/10/04 05:28:09;;;;;;;7.30;2.42;;;;;;;21.00;55.21;102617.56;4999983;28;20328;-36
2023/10/04 05:30:38;;;;;;;4.50;2.22;;;;;;;20.99;55.61;102618.56;5003965;28;20056;-36
2023/10/04 05:33:08;;;;;;;4.22;2.03;;;;;;;21.00;55.41;102619.41;5002782;28;20444;-36
2023/10/04 05:35:35;;;;;;;3.05;1.70;;;;;;;20.99;55.49;102620.41;5004259;28;20461;-37
2023/10/04 05:38:14;;;;;;;5.15;2.22;;;;;;;20.98;55.34;102630.31;4999987;28;20474;-35
2023/10/04 05:40:45;;;;;;;4.70;2.33;;;;;;;20.98;55.20;102627.63;4999141;28;20543;-37
2023/10/04 05:43:12;;;;;;;6.20;2.75;;;;;;;20.96;55.24;102621.50;5001923;28;20073;-35
2023/10/04 05:45:42;;;;;;;4.70;2.05;;;;;;;20.96;55.62;102635.00;4998419;28;20434;-35
2023/10/04 05:48:13;;;;;;;5.55;2.28;;;;;;;20.95;55.25;102636.84;5002770;28;20050;-35
2023/10/04 05:50:40;;;;;;;3.47;1.98;;;;;;;20.95;55.47;102633.28;5002862;28;20442;-35
2023/10/04 05:53:08;;;;;;;3.40;2.05;;;;;;;20.95;55.60;102633.28;4997550;28;20467;-35
2023/10/04 05:55:37;;;;;;;4.45;2.30;;;;;;;20.94;55.28;102634.25;4998480;28;20038;-35
2023/10/04 05:58:08;;;;;;;5.55;2.33;;;;;;;20.95;55.19;102641.38;5002085;28;20144;-35
2023/10/04 06:00:40;;;;;;;4.72;2.00;;;;;;;20.94;55.65;102642.34;5002438;28;20117;-36
2023/10/04 06:03:07;;;;;;;6.80;2.60;;;;;;;20.93;55.51;102641.47;5000912;28;20882;-35
2023/10/04 06:05:35;;;;;;;5.32;2.05;;;;;;;20.93;55.51;102646.88;4996422;28;20536;-35
2023/10/04 06:08:10;;;;;;;5.05;2.08;;;;;;;20.92;55.26;102647.88;4999007;28;20147;-36
2023/10/04 06:10:37;;;;;;;4.82;2.08;;;;;;;20.93;55.68;102648.72;5000044;28;20113;-36
2023/10/04 06:13:14;;;;;;;6.30;1.92;;;;;;;20.90;55.28;102640.88;5001399;28;20054;-36
2023/10/04 06:15:46;;;;;;;3.30;2.20;;;;;;;20.91;55.36;102650.72;5001274;28;20081;-36
2023/10/04 06:18:14;;;;;;;3.65;1.80;;;;;;;20.90;55.28;102644.47;4996741;28;20043;-36
2023/10/04 06:20:41;;;;;;;3.72;1.80;;;;;;;20.90;55.36;102643.59;5000670;28;20087;-35
2023/10/04 06:23:09;;;;;;;5.30;2.10;;;;;;;20.90;55.17;102640.88;5002431;28;20049;-35
2023/10/04 06:25:41;;;;;;;3.95;2.03;;;;;;;20.88;55.27;102641.03;4994343;28;20128;-35
2023/10/04 06:28:11;;;;;;;4.80;2.38;;;;;;;20.90;55.04;102660.63;4999619;28;20050;-36
2023/10/04 06:30:38;;;;;;;5.63;2.67;;;;;;;20.89;55.16;102649.97;5002577;28;20077;-36
2023/10/04 06:33:08;;;;;;;4.60;2.05;;;;;;;20.88;55.20;102661.75;4997667;28;20049;-35
2023/10/04 06:35:37;;;;;;;4.03;1.60;;;;;;;20.87;55.10;102666.28;5000862;28;20057;-36
2023/10/04 06:38:06;;;;;;;4.03;2.10;;;;;;;20.88;55.11;102661.75;4995735;28;20050;-36
2023/10/04 06:40:34;;;;;;;4.47;1.67;;;;;;;20.87;55.35;102660.88;4994230;28;20465;-36
2023/10/04 06:43:04;;;;;;;5.47;1.98;;;;;;;20.87;54.71;102662.72;5003410;28;20058;-35
2023/10/04 06:45:31;;;;;;;4.63;2.30;;;;;;;20.88;54.84;102659.03;5003846;28;20058;-35
2023/10/04 06:48:01;;;;;;;6.15;2.13;;;;;;;20.87;54.94;102652.81;5006484;28;20345;-35
2023/10/04 06:50:28;;;;;;;4.25;1.85;;;;;;;20.87;55.03;102660.88;5004790;28;20068;-36
2023/10/04 06:52:57;;;;;;;4.97;2.10;;;;;;;20.88;55.04;102672.53;5002259;28;20473;-36
2023/10/04 06:55:25;;;;;;;4.10;1.70;;;;;;;20.89;55.32;102671.53;5000331;28;20046;-35
2023/10/04 06:57:53;;;;;;;4.25;2.03;;;;;;;20.87;54.77;102671.66;5008044;28;20077;-35
2023/10/04 07:00:23;;;;;;;4.78;2.10;;;;;;;20.87;54.71;102674.38;5007567;28;20142;-35
2023/10/04 07:02:59;;;;;;;7.22;1.92;;;;;;;20.88;54.92;102667.13;5001890;28;20050;-36
2023/10/04 07:05:36;;;;;;;5.30;2.13;;;;;;;20.87;54.91;102668.97;4998685;28;20050;-36
2023/10/04 07:08:05;;;;;;;5.03;1.90;;;;;;;20.88;54.84;102675.22;5001036;28;20050;-35
2023/10/04 07:10:33;;;;;;;6.63;1.85;;;;;;;20.88;54.93;102684.16;4998782;28;20060;-36
2023/10/04 07:13:02;;;;;;;4.85;2.35;;;;;;;20.88;nan;102680.59;5003022;28;20421;-36
2023/10/04 07:15:35;;;;;;;4.32;1.80;;;;;;;20.90;55.23;102686.72;5002645;28;20062;-36
2023/10/04 07:18:06;;;;;;;4.57;2.00;;;;;;;20.91;54.96;102688.44;5002683;28;20421;-36
2023/10/04 07:20:34;;;;;;;4.95;2.00;;;;;;;20.91;54.69;102691.13;5003123;28;20121;-36
2023/10/04 07:23:05;;;;;;;3.97;1.85;;;;;;;20.91;54.39;102673.13;4997646;28;20053;-36
2023/10/04 07:25:34;;;;;;;8.10;2.20;;;;;;;20.92;54.74;102674.81;4998683;28;20050;-36
2023/10/04 07:28:03;;;;;;;5.13;2.00;;;;;;;20.92;54.42;102674.81;5003938;28;20131;-36
2023/10/04 07:30:36;;;;;;;5.47;1.90;;;;;;;20.93;54.72;102681.06;5007917;28;20125;-36
2023/10/04 07:33:03;;;;;;;5.40;2.00;;;;;;;20.95;54.67;102684.50;5002744;28;20133;-36
2023/10/04 07:35:32;;;;;;;4.13;2.00;;;;;;;20.96;54.83;102688.91;5001755;28;20484;-36
2023/10/04 07:37:59;;;;;;;6.22;2.17;;;;;;;20.98;54.83;102689.63;4999555;28;20046;-36
2023/10/04 07:40:30;;;;;;;4.25;1.95;;;;;;;20.98;54.48;102692.31;5002525;28;20058;-36
2023/10/04 07:42:59;;;;;;;3.25;1.65;;;;;;;20.99;54.77;102688.66;5004375;28;20084;-36
2023/10/04 07:45:28;;;;;;;5.30;1.75;;;;;;;21.01;54.71;102699.31;5003755;28;20090;-36
2023/10/04 07:47:58;;;;;;;4.43;1.67;;;;;;;21.01;54.76;102694.75;5001525;28;20129;-36
2023/10/04 07:50:26;;;;;;;3.58;1.95;;;;;;;21.01;54.30;102708.25;5008646;28;20133;-36
2023/10/04 07:52:55;;;;;;;5.85;2.33;;;;;;;21.04;54.22;102712.53;5006056;28;20412;-37
2023/10/04 07:55:24;;;;;;;5.22;1.83;;;;;;;21.04;54.57;102710.69;5004523;28;20434;-36
2023/10/04 07:58:03;;;;;;;6.40;2.47;;;;;;;21.05;54.18;102712.41;5002021;28;20128;-36
2023/10/04 08:00:31;;;;;;;5.75;2.47;;;;;;;21.08;54.38;102712.16;5007511;28;20422;-37
2023/10/04 08:02:58;;;;;;;6.15;1.80;;;;;;;21.09;54.17;102716.53;5005821;28;20092;-37
2023/10/04 08:05:27;;;;;;;4.30;1.50;;;;;;;21.12;54.16;102718.13;4999959;28;20402;-36
2023/10/04 08:07:56;;;;;;;5.20;2.40;;;;;;;21.12;54.13;102716.28;5003064;28;20054;-37
2023/10/04 08:10:25;;;;;;;5.35;2.38;;;;;;;21.14;54.29;102724.25;5001400;28;20076;-37
2023/10/04 08:12:54;;;;;;;5.85;2.45;;;;;;;21.15;54.20;102724.13;5005830;28;20042;-37
2023/10/04 08:15:25;;;;;;;5.90;2.20;;;;;;;21.16;54.64;102723.16;5005979;28;20084;-36
2023/10/04 08:17:54;;;;;;;7.30;2.42;;;;;;;21.18;54.35;102725.69;5003128;28;20054;-36
2023/10/04 08:20:23;;;;;;;5.13;2.13;;;;;;;21.19;54.22;102725.59;5005077;28;20128;-36
2023/10/04 08:22:50;;;;;;;4.85;1.90;;;;;;;21.20;54.15;102726.44;5004215;28;20077;-36
2023/10/04 08:25:18;;;;;;;4.65;1.85;;;;;;;21.23;54.48;102730.69;5006850;28;20425;-37
2023/10/04 08:27:46;;;;;;;5.18;1.95;;;;;;;21.24;54.51;102732.44;5001348;28;20438;-36
2023/10/04 08:30:14;;;;;;;5.15;2.08;;;;;;;21.27;54.43;102737.59;5008657;28;20508;-37
2023/10/04 08:32:43;;;;;;;6.35;2.22;;;;;;;21.28;54.11;102733.88;5006652;28;20710;-37
2023/10/04 08:35:33;;;;;;;6.10;2.10;;;;;;;21.31;54.30;102736.34;5007380;28;20058;-37
2023/10/04 08:38:03;;;;;;;5.05;2.20;;;;;;;21.31;54.55;102731.78;4997263;28;20064;-37
2023/10/04 08:40:31;;;;;;;6.10;2.30;;;;;;;21.33;54.38;102727.16;5000382;28;20054;-36
2023/10/04 08:42:58;;;;;;;5.60;2.10;;;;;;;21.35;54.25;102718.94;5005092;28;20112;-37
2023/10/04 08:45:29;;;;;;;3.83;1.88;;;;;;;21.36;54.27;102717.94;4999936;28;20337;-37
2023/10/04 08:47:57;;;;;;;8.35;2.50;;;;;;;21.38;54.48;102719.50;5005124;28;20058;-37
2023/10/04 08:50:30;;;;;;;6.60;2.10;;;;;;;21.39;54.34;102721.25;5005816;28;20042;-37
2023/10/04 08:53:05;;;;;;;5.00;1.98;;;;;;;21.40;54.14;102725.66;5001662;28;20074;-37
2023/10/04 08:55:37;;;;;;;5.15;2.00;;;;;;;21.42;54.07;102720.09;5000185;28;20398;-38
2023/10/04 08:58:04;;;;;;;6.32;2.67;;;;;;;21.43;54.17;102719.16;5008437;28;20389;-37
2023/10/04 09:00:34;;;;;;;4.45;2.08;;;;;;;21.43;54.08;102722.69;5009344;28;20379;-37
2023/10/04 09:03:04;;;;;;;7.25;2.50;;;;;;;21.44;53.82;102712.75;5005028;28;20081;-37
2023/10/04 09:05:33;;;;;;;5.55;2.10;;;;;;;21.47;54.11;102722.41;5002314;28;20046;-37
2023/10/04 09:08:04;;;;;;;8.85;2.50;;;;;;;21.48;54.26;102722.31;4998442;28;20132;-37
2023/10/04 09:10:34;;;;;;;5.90;2.15;;;;;;;21.49;54.13;102715.91;4999211;28;20050;-37
2023/10/04 09:13:03;;;;;;;5.40;2.30;;;;;;;21.52;54.08;102722.91;5002650;28;20088;-37
2023/10/04 09:15:31;;;;;;;5.22;2.22;;;;;;;21.52;54.13;102714.81;5001459;28;20056;-37
2023/10/04 09:17:58;;;;;;;5.53;2.25;;;;;;;21.53;53.91;102716.50;5003387;28;20153;-37
2023/10/04 09:20:35;;;;;;;5.53;2.10;;;;;;;21.53;53.93;102708.41;5007737;28;20179;-37
2023/10/04 09:23:15;;;;;;;5.63;2.40;;;;;;;21.51;53.49;102711.25;4999261;28;20050;-37
2023/10/04 09:25:43;;;;;;;4.88;1.95;;;;;;;21.52;53.55;102717.50;4998991;28;20391;-37
2023/10/04 09:28:11;;;;;;;4.50;1.90;;;;;;;21.52;53.76;102706.72;5005779;28;20132;-37
2023/10/04 09:30:38;;;;;;;4.45;2.28;;;;;;;21.50;53.57;102716.75;5008941;28;20073;-37
2023/10/04 09:33:21;;;;;;;6.60;1.95;;;;;;;21.49;53.92;102705.13;5006151;28;20046;-37
2023/10/04 09:35:48;;;;;;;9.32;2.13;;;;;;;21.48;53.56;102719.59;5004119;28;20129;-37
2023/10/04 09:38:21;;;;;;;7.78;2.38;;;;;;;21.48;53.94;102714.22;4998162;28;20377;-37
2023/10/04 09:40:55;;;;;;;5.30;2.25;;;;;;;21.46;53.70;102721.56;5001185;28;20073;-37
2023/10/04 09:43:35;;;;;;;7.35;2.40;;;;;;;21.46;53.78;102716.16;4997385;28;20141;-37
2023/10/04 09:46:10;;;;;;;6.60;2.58;;;;;;;21.46;54.13;102720.72;5003505;28;20074;-37
2023/10/04 09:48:43;;;;;;;4.38;1.85;;;;;;;21.45;53.94;102714.47;5004367;28;20136;-37
2023/10/04 09:51:11;;;;;;;;;;;;;;;21.44;54.36;102718.16;4997930;28;20058;-37
2023/10/04 09:53:39;;;;;;;7.70;2.08;;;;;;;21.48;54.30;102714.22;4998614;28;20024;-37
2023/10/04 09:56:08;;;;;;;8.48;2.50;;;;;;;21.49;54.16;102717.75;5000343;28;20053;-37
2023/10/04 09:58:48;;;;;;;5.50;2.42;;;;;;;21.50;54.13;102717.63;5002566;28;20073;-36
2023/10/04 10:01:19;;;;;;;4.32;2.00;;;;;;;21.51;54.07;102713.94;5005891;28;20104;-37
2023/10/04 10:03:57;;;;;;;5.88;2.28;;;;;;;21.52;53.94;102729.16;5001670;28;20120;-37
2023/10/04 10:06:26;;;;;;;7.57;2.65;;;;;;;21.54;54.18;102715.50;5003260;28;20074;-37
2023/10/04 10:08:58;;;;;;;6.78;2.72;;;;;;;21.55;54.12;102710.00;5003506;28;20053;-37
2023/10/04 10:11:26;;;;;;;5.22;2.08;;;;;;;21.56;53.86;102711.72;5001605;28;20049;-37
2023/10/04 10:13:55;;;;;;;4.88;2.33;;;;;;;21.59;53.86;102705.19;5001554;28;20973;-37
2023/10/04 10:16:23;;;;;;;5.25;2.50;;;;;;;21.60;53.85;102712.31;4996130;28;20050;-37
2023/10/04 10:18:52;;;;;;;7.40;2.50;;;;;;;21.63;53.74;102703.94;5004065;28;20053;-37
2023/10/04 10:21:19;;;;;;;5.57;1.73;;;;;;;21.65;53.83;102713.59;5000480;28;20140;-37
2023/10/04 10:24:14;;;;;;;6.00;2.13;;;;;;;21.65;53.75;102705.50;4999766;28;20057;-37
2023/10/04 10:26:41;;;;;;;6.43;2.40;;;;;;;21.72;53.62;102710.38;5002360;28;20053;-37
2023/10/04 10:29:20;;;;;;;6.90;2.10;;;;;;;21.73;53.72;102712.94;5004171;28;20046;-37
2023/10/04 10:31:56;;;;;;;8.32;2.60;;;;;;;21.76;53.63;102711.84;5004233;28;20054;-37
2023/10/04 10:34:23;;;;;;;7.65;2.40;;;;;;;21.80;53.71;102707.88;5004640;28;20070;-37
2023/10/04 10:37:29;;;;;;;5.95;2.60;;;;;;;21.79;53.69;102701.63;5004137;28;20562;-37
2023/10/04 10:39:56;;;;;;;9.93;2.40;;;;;;;21.83;53.54;102708.47;4961291;28;20062;-37
2023/10/04 10:42:23;;;;;;;7.32;2.70;;;;;;;21.83;53.33;102708.47;4961801;28;20524;-37
2023/10/04 10:45:29;;;;;;;5.45;2.00;;;;;;;21.81;52.63;102696.94;4979037;28;20121;-37
2023/10/04 10:47:56;;;;;;;7.72;2.40;;;;;;;21.83;52.86;102700.38;5003272;28;20115;-37
2023/10/04 10:50:33;;;;;;;9.40;2.75;;;;;;;21.81;52.63;102699.63;5003222;28;20478;-37
2023/10/04 10:53:05;;;;;;;7.25;2.55;;;;;;;21.81;52.75;102698.78;5001341;28;20050;-37
2023/10/04 10:55:35;;;;;;;5.85;2.13;;;;;;;21.80;52.58;102707.88;5001649;28;20046;-37
2023/10/04 10:58:02;;;;;;;4.40;1.88;;;;;;;21.79;52.79;102711.53;5006369;28;20620;-36
2023/10/04 11:00:32;;;;;;;5.57;2.55;;;;;;;21.77;53.03;102708.13;4998455;28;20077;-36
2023/10/04 11:03:00;;;;;;;7.07;2.42;;;;;;;21.78;53.49;102709.84;4997279;28;20446;-36
2023/10/04 11:05:27;;;;;;;6.38;2.25;;;;;;;21.77;53.56;102700.91;4998697;28;20042;-36
2023/10/04 11:07:55;;;;;;;6.22;2.55;;;;;;;21.78;53.02;102693.66;5000778;28;20054;-36
2023/10/04 11:10:23;;;;;;;7.28;2.45;;;;;;;21.79;52.88;102695.34;5003920;28;20358;-37
2023/10/04 11:12:53;;;;;;;7.43;2.58;;;;;;;21.80;52.97;102697.09;4999002;28;20054;-37
2023/10/04 11:15:23;;;;;;;5.97;2.38;;;;;;;21.82;53.40;102705.88;4999911;28;20104;-36
2023/10/04 11:17:53;;;;;;;6.57;2.70;;;;;;;21.83;52.94;102686.00;4999694;28;20138;-36
2023/10/04 11:20:21;;;;;;;6.00;2.45;;;;;;;21.84;53.15;102682.34;5003030;28;20054;-36
2023/10/04 11:22:49;;;;;;;8.40;2.20;;;;;;;21.84;53.23;102683.19;4999245;28;20060;-36
2023/10/04 11:25:19;;;;;;;4.57;2.15;;;;;;;21.85;52.84;102682.19;4999671;28;20046;-36
2023/10/04 11:27:48;;;;;;;5.57;2.92;;;;;;;21.87;52.84;102690.13;5004028;28;20136;-36
2023/10/04 11:30:23;;;;;;;4.85;2.08;;;;;;;21.86;52.90;102683.03;5004609;28;20133;-36
2023/10/04 11:32:50;;;;;;;4.28;2.20;;;;;;;21.89;53.03;102690.88;5009857;28;20049;-36
2023/10/04 11:35:21;;;;;;;6.55;2.40;;;;;;;21.89;53.14;102690.88;5005102;28;20056;-36
2023/10/04 11:37:49;;;;;;;6.00;2.10;;;;;;;21.89;53.27;102685.47;5006929;28;20082;-36
2023/10/04 11:40:25;;;;;;;6.05;2.33;;;;;;;21.89;53.22;102674.69;5005621;28;20057;-36
2023/10/04 11:42:59;;;;;;;6.63;2.72;;;;;;;21.91;53.33;102676.25;5006335;28;20108;-36
2023/10/04 11:45:27;;;;;;;5.13;2.35;;;;;;;21.91;53.19;102675.41;5003931;28;20148;-37
2023/10/04 11:48:02;;;;;;;5.40;2.30;;;;;;;21.90;53.16;102666.44;5002514;28;20073;-37